Time;durP1;ratioP1;P1;durP2;ratioP2;P2;SDS_P1;SDS_P2;PMS_P1;PMS_P2;Temp;Humidity;BMP_temperature;BMP_pressure;BME280_temperature;BME280_humidity;BME280_pressure;Samples;Min_cycle;Max_cycle;Signal;HPM_P1;HPM_P2
2020/12/22 00:00:34;;;;;;;;;;;;;;;;;;5053962;28;19929;-67
2020/12/22 00:03:01;;;;;;;;;;;;;;;;;;5054600;28;20015;-67
2020/12/22 00:05:27;;;;;;;;;;;;;;;;;;5054529;28;20344;-66
2020/12/22 00:07:54;;;;;;;;;;;;;;;;;;5054667;28;19933;-66
2020/12/22 00:10:20;;;;;;;;;;;;;;;;;;5054511;28;20325;-67
2020/12/22 00:12:47;;;;;;;;;;;;;;;;;;5053824;28;19924;-67
2020/12/22 00:15:13;;;;;;;;;;;;;;;;;;5054472;28;20011;-67
2020/12/22 00:17:40;;;;;;;;;;;;;;;;;;5053108;28;19929;-68
2020/12/22 00:20:06;;;;;;;;;;;;;;;;;;5055728;28;19924;-66
2020/12/22 00:22:33;;;;;;;;;;;;;;;;;;5055101;28;19992;-67
2020/12/22 00:24:59;;;;;;;;;;;;;;;;;;5053958;28;20061;-66
2020/12/22 00:27:26;;;;;;;;;;;;;;;;;;5051904;28;19929;-66
2020/12/22 00:29:52;;;;;;;;;;;;;;;;;;5054024;28;20298;-66
2020/12/22 00:32:19;;;;;;;;;;;;;;;;;;5054204;28;19931;-65
2020/12/22 00:34:45;;;;;;;;;;;;;;;;;;5053635;28;19947;-67
2020/12/22 00:37:12;;;;;;;;;;;;;;;;;;5053808;28;19932;-65
2020/12/22 00:39:38;;;;;;;;;;;;;;;;;;5053172;28;19928;-66
2020/12/22 00:42:05;;;;;;;;;;;;;;;;;;5054493;28;20398;-66
2020/12/22 00:44:31;;;;;;;;;;;;;;;;;;5053416;28;19924;-67
2020/12/22 00:46:58;;;;;;;;;;;;;;;;;;5053822;28;20378;-67
2020/12/22 00:49:24;;;;;;;;;;;;;;;;;;5052933;28;19935;-69
2020/12/22 00:51:51;;;;;;;;;;;;;;;;;;5053365;28;20348;-68
2020/12/22 00:54:17;;;;;;;;;;;;;;;;;;5053625;28;20017;-64
2020/12/22 00:56:44;;;;;;;;;;;;;;;;;;5053231;28;20039;-65
2020/12/22 00:59:10;;;;;;;;;;;;;;;;;;5052820;28;19925;-66
2020/12/22 01:01:37;;;;;;;;;;;;;;;;;;5053046;28;19978;-67
2020/12/22 01:04:03;;;;;;;;;;;;;;;;;;5053174;28;19989;-66
2020/12/22 01:06:30;;;;;;;;;;;;;;;;;;5053539;28;19986;-66
2020/12/22 01:08:56;;;;;;;;;;;;;;;;;;5052326;28;19925;-67
2020/12/22 01:11:23;;;;;;;;;;;;;;;;;;5053429;28;19948;-65
2020/12/22 01:13:49;;;;;;;;;;;;;;;;;;5053545;28;19937;-66
2020/12/22 01:16:19;;;;;;;;;;;;;;;;;;5053155;28;19928;-67
2020/12/22 01:18:45;;;;;;;;;;;;;;;;;;5053135;28;20332;-66
2020/12/22 01:21:12;;;;;;;;;;;;;;;;;;5052944;28;20034;-67
2020/12/22 01:23:38;;;;;;;;;;;;;;;;;;5052720;28;20023;-67
2020/12/22 01:26:05;;;;;;;;;;;;;;;;;;5052744;28;20433;-67
2020/12/22 01:28:31;;;;;;;;;;;;;;;;;;5052984;28;19939;-67
2020/12/22 01:30:58;;;;;;;;;;;;;;;;;;5052868;28;19924;-67
2020/12/22 01:33:24;;;;;;;;;;;;;;;;;;5052887;28;19966;-67
2020/12/22 01:35:51;;;;;;;;;;;;;;;;;;5054022;28;19929;-67
2020/12/22 01:38:17;;;;;;;;;;;;;;;;;;5052814;28;19993;-66
2020/12/22 01:40:44;;;;;;;;;;;;;;;;;;5054028;28;20394;-66
2020/12/22 01:43:10;;;;;;;;;;;;;;;;;;5053491;28;19928;-66
2020/12/22 01:45:37;;;;;;;;;;;;;;;;;;5052092;28;20386;-66
2020/12/22 01:48:03;;;;;;;;;;;;;;;;;;5053063;28;19925;-66
2020/12/22 01:50:30;;;;;;;;;;;;;;;;;;5053652;28;20442;-66
2020/12/22 01:52:56;;;;;;;;;;;;;;;;;;5052727;28;19924;-65
2020/12/22 01:55:23;;;;;;;;;;;;;;;;;;5053126;28;20302;-67
2020/12/22 01:57:49;;;;;;;;;;;;;;;;;;5051406;28;19924;-66
2020/12/22 02:00:16;;;;;;;;;;;;;;;;;;5053894;28;19928;-67
2020/12/22 02:02:42;;;;;;;;;;;;;;;;;;5055704;28;19925;-66
2020/12/22 02:05:09;;;;;;;;;;;;;;;;;;5052109;28;19928;-65
2020/12/22 02:07:35;;;;;;;;;;;;;;;;;;5050796;28;19925;-65
2020/12/22 02:10:02;;;;;;;;;;;;;;;;;;5052959;28;20299;-66
2020/12/22 02:12:28;;;;;;;;;;;;;;;;;;5052036;28;19925;-67
2020/12/22 02:14:55;;;;;;;;;;;;;;;;;;5051628;28;19950;-67
2020/12/22 02:17:21;;;;;;;;;;;;;;;;;;5051829;28;19931;-66
2020/12/22 02:19:48;;;;;;;;;;;;;;;;;;5052034;28;20340;-67
2020/12/22 02:22:14;;;;;;;;;;;;;;;;;;5051970;28;19974;-67
2020/12/22 02:24:40;;;;;;;;;;;;;;;;;;5051978;28;19925;-67
2020/12/22 02:27:07;;;;;;;;;;;;;;;;;;5051828;28;19931;-67
2020/12/22 02:29:34;;;;;;;;;;;;;;;;;;5051851;28;19978;-67
2020/12/22 02:32:00;;;;;;;;;;;;;;;;;;5051537;28;20484;-67
2020/12/22 02:34:27;;;;;;;;;;;;;;;;;;5052088;28;19925;-66
2020/12/22 02:36:53;;;;;;;;;;;;;;;;;;5051335;28;20298;-67
2020/12/22 02:39:19;;;;;;;;;;;;;;;;;;5051917;28;19931;-67
2020/12/22 02:41:46;;;;;;;;;;;;;;;;;;5051136;28;20250;-66
2020/12/22 02:44:13;;;;;;;;;;;;;;;;;;5051881;28;19925;-66
2020/12/22 02:46:39;;;;;;;;;;;;;;;;;;5051192;28;19925;-66
2020/12/22 02:49:06;;;;;;;;;;;;;;;;;;5050674;28;20390;-64
2020/12/22 02:51:32;;;;;;;;;;;;;;;;;;5052285;28;20019;-66
2020/12/22 02:53:59;;;;;;;;;;;;;;;;;;5050776;28;19924;-67
2020/12/22 02:56:25;;;;;;;;;;;;;;;;;;5050210;28;19939;-66
2020/12/22 02:58:52;;;;;;;;;;;;;;;;;;5051785;28;19964;-66
2020/12/22 03:01:18;;;;;;;;;;;;;;;;;;5050975;28;20398;-67
2020/12/22 03:03:45;;;;;;;;;;;;;;;;;;5051666;28;19925;-66
2020/12/22 03:06:11;;;;;;;;;;;;;;;;;;5051045;28;19950;-65
2020/12/22 03:08:38;;;;;;;;;;;;;;;;;;5050243;28;20015;-65
2020/12/22 03:11:04;;;;;;;;;;;;;;;;;;5051215;28;19933;-67
2020/12/22 03:13:31;;;;;;;;;;;;;;;;;;5050653;28;19925;-65
2020/12/22 03:15:57;;;;;;;;;;;;;;;;;;5050999;28;19925;-66
2020/12/22 03:18:23;;;;;;;;;;;;;;;;;;5051095;28;19928;-66
2020/12/22 03:20:50;;;;;;;;;;;;;;;;;;5051359;28;19931;-63
2020/12/22 03:23:16;;;;;;;;;;;;;;;;;;5051286;28;20417;-64
2020/12/22 03:25:43;;;;;;;;;;;;;;;;;;5050932;28;20199;-63
2020/12/22 03:28:09;;;;;;;;;;;;;;;;;;5050129;28;20336;-64
2020/12/22 03:30:36;;;;;;;;;;;;;;;;;;5051528;28;19978;-64
2020/12/22 03:33:02;;;;;;;;;;;;;;;;;;5050950;28;19978;-65
2020/12/22 03:35:29;;;;;;;;;;;;;;;;;;5051784;28;19925;-66
2020/12/22 03:37:56;;;;;;;;;;;;;;;;;;5050874;28;19925;-65
2020/12/22 03:40:23;;;;;;;;;;;;;;;;;;5051987;28;19924;-65
2020/12/22 03:42:49;;;;;;;;;;;;;;;;;;5050597;28;20011;-65
2020/12/22 03:45:16;;;;;;;;;;;;;;;;;;5050874;28;19931;-64
2020/12/22 03:47:43;;;;;;;;;;;;;;;;;;5050613;28;19956;-64
2020/12/22 03:50:09;;;;;;;;;;;;;;;;;;5048992;28;19928;-65
2020/12/22 03:52:36;;;;;;;;;;;;;;;;;;5050731;28;19925;-65
2020/12/22 03:55:02;;;;;;;;;;;;;;;;;;5050777;28;19987;-65
2020/12/22 03:57:29;;;;;;;;;;;;;;;;;;5050082;28;19931;-64
2020/12/22 03:59:55;;;;;;;;;;;;;;;;;;5049430;28;20027;-65
2020/12/22 04:02:22;;;;;;;;;;;;;;;;;;5051114;28;20003;-64
2020/12/22 04:04:48;;;;;;;;;;;;;;;;;;5049657;28;20317;-65
2020/12/22 04:07:15;;;;;;;;;;;;;;;;;;5050338;28;20258;-65
2020/12/22 04:09:41;;;;;;;;;;;;;;;;;;5050913;28;19947;-64
2020/12/22 04:12:08;;;;;;;;;;;;;;;;;;5051072;28;19925;-63
2020/12/22 04:14:34;;;;;;;;;;;;;;;;;;5052932;28;19929;-65
2020/12/22 04:17:01;;;;;;;;;;;;;;;;;;5053547;28;19925;-63
2020/12/22 04:19:27;;;;;;;;;;;;;;;;;;5054200;28;19968;-64
2020/12/22 04:21:54;;;;;;;;;;;;;;;;;;5054402;28;20394;-64
2020/12/22 04:24:20;;;;;;;;;;;;;;;;;;5054310;28;19925;-65
2020/12/22 04:26:47;;;;;;;;;;;;;;;;;;5053019;28;19925;-65
2020/12/22 04:29:13;;;;;;;;;;;;;;;;;;5053522;28;19928;-64
2020/12/22 04:31:40;;;;;;;;;;;;;;;;;;5053163;28;20348;-64
2020/12/22 04:34:06;;;;;;;;;;;;;;;;;;5054178;28;19925;-65
2020/12/22 04:36:33;;;;;;;;;;;;;;;;;;5054379;28;20008;-65
2020/12/22 04:38:59;;;;;;;;;;;;;;;;;;5053387;28;19925;-64
2020/12/22 04:41:26;;;;;;;;;;;;;;;;;;5054673;28;20016;-65
2020/12/22 04:43:52;;;;;;;;;;;;;;;;;;5053511;28;19986;-64
2020/12/22 04:46:19;;;;;;;;;;;;;;;;;;5054266;28;19952;-65
2020/12/22 04:48:46;;;;;;;;;;;;;;;;;;5053019;28;20322;-67
2020/12/22 04:51:12;;;;;;;;;;;;;;;;;;5054123;28;19935;-65
2020/12/22 04:53:38;;;;;;;;;;;;;;;;;;5053828;28;20326;-66
2020/12/22 04:56:05;;;;;;;;;;;;;;;;;;5053785;28;19925;-65
2020/12/22 04:58:31;;;;;;;;;;;;;;;;;;5053382;28;20404;-67
2020/12/22 05:00:58;;;;;;;;;;;;;;;;;;5053178;28;19983;-66
2020/12/22 05:03:24;;;;;;;;;;;;;;;;;;5053786;28;19924;-66
2020/12/22 05:05:51;;;;;;;;;;;;;;;;;;5052842;28;19932;-66
2020/12/22 05:08:17;;;;;;;;;;;;;;;;;;5052010;28;19924;-66
2020/12/22 05:10:44;;;;;;;;;;;;;;;;;;5051895;28;19936;-66
2020/12/22 05:13:10;;;;;;;;;;;;;;;;;;5041473;28;20183;-67
2020/12/22 05:15:37;;;;;;;;;;;;;;;;;;5052382;28;19986;-65
2020/12/22 05:18:05;;;;;;;;;;;;;;;;;;5052545;28;19940;-66
2020/12/22 05:20:32;;;;;;;;;;;;;;;;;;5053077;28;20391;-66
2020/12/22 05:22:58;;;;;;;;;;;;;;;;;;5053610;28;19925;-66
2020/12/22 05:25:25;;;;;;;;;;;;;;;;;;5052694;28;19932;-66
2020/12/22 05:27:51;;;;;;;;;;;;;;;;;;5052944;28;19929;-66
2020/12/22 05:30:18;;;;;;;;;;;;;;;;;;5053036;28;20015;-66
2020/12/22 05:32:45;;;;;;;;;;;;;;;;;;5052638;28;19931;-66
2020/12/22 05:35:13;;;;;;;;;;;;;;;;;;5053377;28;20046;-65
2020/12/22 05:37:39;;;;;;;;;;;;;;;;;;5058435;28;19925;-67
2020/12/22 05:40:06;;;;;;;;;;;;;;;;;;5056529;28;19924;-64
2020/12/22 05:42:32;;;;;;;;;;;;;;;;;;5052623;28;19931;-65
2020/12/22 05:44:58;;;;;;;;;;;;;;;;;;5052356;28;19925;-66
2020/12/22 05:47:25;;;;;;;;;;;;;;;;;;5051784;28;19970;-66
2020/12/22 05:49:51;;;;;;;;;;;;;;;;;;5053078;28;19985;-66
2020/12/22 05:52:18;;;;;;;;;;;;;;;;;;5051499;28;19928;-66
2020/12/22 05:54:44;;;;;;;;;;;;;;;;;;5052969;28;19925;-66
2020/12/22 05:57:11;;;;;;;;;;;;;;;;;;5051995;28;19939;-66
2020/12/22 05:59:37;;;;;;;;;;;;;;;;;;5052117;28;20019;-67
2020/12/22 06:02:04;;;;;;;;;;;;;;;;;;5050572;28;19924;-66
2020/12/22 06:04:30;;;;;;;;;;;;;;;;;;5052660;28;20402;-69
2020/12/22 06:06:57;;;;;;;;;;;;;;;;;;5051953;28;19929;-69
2020/12/22 06:09:23;;;;;;;;;;;;;;;;;;5052199;28;20440;-70
2020/12/22 06:11:50;;;;;;;;;;;;;;;;;;5052063;28;19924;-70
2020/12/22 06:14:16;;;;;;;;;;;;;;;;;;5051985;28;19925;-69
2020/12/22 06:16:43;;;;;;;;;;;;;;;;;;5052232;28;20307;-69
2020/12/22 06:19:10;;;;;;;;;;;;;;;;;;5051537;28;19936;-69
2020/12/22 06:21:36;;;;;;;;;;;;;;;;;;5051845;28;19955;-70
2020/12/22 06:24:03;;;;;;;;;;;;;;;;;;5049438;28;20348;-69
2020/12/22 06:26:29;;;;;;;;;;;;;;;;;;5047920;28;20313;-69
2020/12/22 06:28:56;;;;;;;;;;;;;;;;;;5046455;28;19925;-69
2020/12/22 06:31:22;;;;;;;;;;;;;;;;;;5051952;28;19929;-70
2020/12/22 06:33:49;;;;;;;;;;;;;;;;;;5052607;28;19925;-69
2020/12/22 06:36:17;;;;;;;;;;;;;;;;;;5051519;28;19960;-69
2020/12/22 06:38:43;;;;;;;;;;;;;;;;;;5051682;28;19936;-69
2020/12/22 06:41:10;;;;;;;;;;;;;;;;;;5052110;28;19928;-69
2020/12/22 06:43:36;;;;;;;;;;;;;;;;;;5051235;28;19929;-70
2020/12/22 06:46:03;;;;;;;;;;;;;;;;;;5046203;28;19937;-70
2020/12/22 06:48:29;;;;;;;;;;;;;;;;;;5051831;28;19925;-68
2020/12/22 06:50:56;;;;;;;;;;;;;;;;;;5052015;28;20015;-68
2020/12/22 06:53:22;;;;;;;;;;;;;;;;;;5051607;28;19932;-69
2020/12/22 06:55:49;;;;;;;;;;;;;;;;;;5051904;28;20280;-68
2020/12/22 06:58:16;;;;;;;;;;;;;;;;;;5051246;28;19975;-69
2020/12/22 07:00:42;;;;;;;;;;;;;;;;;;5052447;28;19946;-69
2020/12/22 07:03:09;;;;;;;;;;;;;;;;;;5047474;28;19942;-69
2020/12/22 07:05:35;;;;;;;;;;;;;;;;;;5052685;28;20283;-69
2020/12/22 07:08:02;;;;;;;;;;;;;;;;;;5052055;28;19931;-69
2020/12/22 07:10:28;;;;;;;;;;;;;;;;;;5053406;28;20296;-70
2020/12/22 07:12:55;;;;;;;;;;;;;;;;;;5054032;28;19925;-69
2020/12/22 07:15:22;;;;;;;;;;;;;;;;;;5053054;28;20082;-69
2020/12/22 07:17:48;;;;;;;;;;;;;;;;;;5052261;28;19929;-70
2020/12/22 07:20:15;;;;;;;;;;;;;;;;;;5045569;28;19925;-69
2020/12/22 07:22:41;;;;;;;;;;;;;;;;;;5032114;28;20425;-70
2020/12/22 07:25:08;;;;;;;;;;;;;;;;;;5046726;28;20441;-67
2020/12/22 07:27:34;;;;;;;;;;;;;;;;;;5051535;28;19925;-70
2020/12/22 07:30:01;;;;;;;;;;;;;;;;;;5051472;28;19924;-67
2020/12/22 07:32:27;;;;;;;;;;;;;;;;;;5050707;28;19983;-67
2020/12/22 07:34:54;;;;;;;;;;;;;;;;;;5051030;28;19929;-68
2020/12/22 07:37:20;;;;;;;;;;;;;;;;;;5051049;28;20329;-68
2020/12/22 07:39:47;;;;;;;;;;;;;;;;;;5050628;28;20467;-68
2020/12/22 07:42:13;;;;;;;;;;;;;;;;;;5043391;28;19939;-68
2020/12/22 07:44:40;;;;;;;;;;;;;;;;;;5050958;28;19972;-68
2020/12/22 07:47:08;;;;;;;;;;;;;;;;;;5040859;28;19960;-69
2020/12/22 07:49:34;;;;;;;;;;;;;;;;;;5043164;28;19979;-69
2020/12/22 07:52:01;;;;;;;;;;;;;;;;;;5041567;28;19925;-68
2020/12/22 07:54:27;;;;;;;;;;;;;;;;;;5040780;28;20318;-68
2020/12/22 07:56:54;;;;;;;;;;;;;;;;;;5044383;28;19925;-68
2020/12/22 07:59:20;;;;;;;;;;;;;;;;;;5050398;28;19925;-68
2020/12/22 08:01:47;;;;;;;;;;;;;;;;;;5046962;28;20023;-68
2020/12/22 08:04:13;;;;;;;;;;;;;;;;;;5053756;28;20422;-68
2020/12/22 08:06:40;;;;;;;;;;;;;;;;;;5053344;28;19928;-68
2020/12/22 08:09:06;;;;;;;;;;;;;;;;;;5044064;28;19933;-68
2020/12/22 08:11:33;;;;;;;;;;;;;;;;;;5047585;28;19930;-67
2020/12/22 08:13:59;;;;;;;;;;;;;;;;;;5049337;28;20023;-68
2020/12/22 08:16:25;;;;;;;;;;;;;;;;;;5038987;28;19925;-69
2020/12/22 08:18:52;;;;;;;;;;;;;;;;;;5043001;28;19925;-69
2020/12/22 08:21:18;;;;;;;;;;;;;;;;;;5055080;28;19991;-69
2020/12/22 08:23:45;;;;;;;;;;;;;;;;;;5055078;28;19924;-69
2020/12/22 08:26:12;;;;;;;;;;;;;;;;;;5042619;28;19925;-69
2020/12/22 08:28:39;;;;;;;;;;;;;;;;;;5050844;28;19979;-69
2020/12/22 08:31:05;;;;;;;;;;;;;;;;;;5050700;28;20023;-70
2020/12/22 08:33:32;;;;;;;;;;;;;;;;;;5052524;28;19924;-70
2020/12/22 08:35:58;;;;;;;;;;;;;;;;;;5054021;28;19925;-68
2020/12/22 08:38:25;;;;;;;;;;;;;;;;;;5053961;28;19924;-69
2020/12/22 08:40:51;;;;;;;;;;;;;;;;;;5054476;28;20003;-69
2020/12/22 08:43:17;;;;;;;;;;;;;;;;;;5052804;28;20028;-69
2020/12/22 08:45:44;;;;;;;;;;;;;;;;;;5051355;28;20360;-69
2020/12/22 08:48:10;;;;;;;;;;;;;;;;;;5039786;28;20256;-69
2020/12/22 08:50:37;;;;;;;;;;;;;;;;;;5046455;28;20284;-69
2020/12/22 08:53:03;;;;;;;;;;;;;;;;;;5039643;28;19925;-68
2020/12/22 08:55:30;;;;;;;;;;;;;;;;;;5036609;28;19925;-69
2020/12/22 08:57:56;;;;;;;;;;;;;;;;;;5047494;28;19924;-70
2020/12/22 09:00:26;;;;;;;;;;;;;;;;;;5053086;28;19925;-68
2020/12/22 09:02:53;;;;;;;;;;;;;;;;;;5053145;28;19932;-69
2020/12/22 09:05:20;;;;;;;;;;;;;;;;;;5042750;28;20298;-68
2020/12/22 09:07:46;;;;;;;;;;;;;;;;;;5045579;28;19926;-68
2020/12/22 09:10:13;;;;;;;;;;;;;;;;;;5042283;28;19925;-69
2020/12/22 09:12:39;;;;;;;;;;;;;;;;;;5038482;28;19925;-69
2020/12/22 09:15:06;;;;;;;;;;;;;;;;;;5043776;28;19931;-68
2020/12/22 09:17:32;;;;;;;;;;;;;;;;;;5033241;28;19932;-68
2020/12/22 09:19:59;;;;;;;;;;;;;;;;;;5036714;28;20372;-68
2020/12/22 09:22:25;;;;;;;;;;;;;;;;;;5033903;28;19925;-69
2020/12/22 09:24:52;;;;;;;;;;;;;;;;;;5042334;28;20306;-69
2020/12/22 09:27:18;;;;;;;;;;;;;;;;;;5046059;28;19931;-69
2020/12/22 09:29:45;;;;;;;;;;;;;;;;;;5044812;28;20290;-69
2020/12/22 09:32:11;;;;;;;;;;;;;;;;;;5044401;28;20015;-70
2020/12/22 09:34:38;;;;;;;;;;;;;;;;;;5049976;28;19925;-68
2020/12/22 09:37:04;;;;;;;;;;;;;;;;;;5052812;28;19935;-68
2020/12/22 09:39:31;;;;;;;;;;;;;;;;;;5052695;28;20015;-68
2020/12/22 09:41:57;;;;;;;;;;;;;;;;;;5044010;28;19932;-68
2020/12/22 09:44:24;;;;;;;;;;;;;;;;;;5036915;28;19931;-68
2020/12/22 09:46:50;;;;;;;;;;;;;;;;;;5038573;28;20015;-68
2020/12/22 09:49:17;;;;;;;;;;;;;;;;;;5047286;28;20301;-68
2020/12/22 09:51:43;;;;;;;;;;;;;;;;;;5049673;28;19928;-68
2020/12/22 09:54:10;;;;;;;;;;;;;;;;;;5040904;28;19932;-67
2020/12/22 09:56:36;;;;;;;;;;;;;;;;;;5039678;28;19925;-66
2020/12/22 09:59:03;;;;;;;;;;;;;;;;;;5040728;28;19929;-66
2020/12/22 10:01:29;;;;;;;;;;;;;;;;;;5036005;28;19983;-67
2020/12/22 10:03:56;;;;;;;;;;;;;;;;;;5045209;28;19925;-68
2020/12/22 10:06:22;;;;;;;;;;;;;;;;;;5039011;28;19971;-67
2020/12/22 10:08:49;;;;;;;;;;;;;;;;;;5043292;28;19929;-67
2020/12/22 10:11:15;;;;;;;;;;;;;;;;;;5039169;28;20007;-67
2020/12/22 10:13:42;;;;;;;;;;;;;;;;;;5040127;28;19925;-67
2020/12/22 10:16:08;;;;;;;;;;;;;;;;;;5033563;28;19931;-67
2020/12/22 10:18:35;;;;;;;;;;;;;;;;;;5036797;28;19932;-68
2020/12/22 10:21:01;;;;;;;;;;;;;;;;;;5033238;28;19979;-66
2020/12/22 10:23:28;;;;;;;;;;;;;;;;;;5045914;28;20406;-67
2020/12/22 10:25:54;;;;;;;;;;;;;;;;;;5039058;28;20318;-66
2020/12/22 10:28:20;;;;;;;;;;;;;;;;;;5047473;28;19946;-67
2020/12/22 10:30:47;;;;;;;;;;;;;;;;;;5050084;28;19924;-67
2020/12/22 10:33:13;;;;;;;;;;;;;;;;;;5044956;28;19929;-67
2020/12/22 10:35:40;;;;;;;;;;;;;;;;;;5051385;28;19925;-67
2020/12/22 10:38:06;;;;;;;;;;;;;;;;;;5048363;28;19925;-66
2020/12/22 10:40:33;;;;;;;;;;;;;;;;;;5033391;28;20020;-68
2020/12/22 10:43:01;;;;;;;;;;;;;;;;;;5040831;28;19931;-68
2020/12/22 10:45:27;;;;;;;;;;;;;;;;;;5051402;28;19929;-67
2020/12/22 10:47:54;;;;;;;;;;;;;;;;;;5049513;28;19968;-67
2020/12/22 10:50:20;;;;;;;;;;;;;;;;;;5038326;28;19925;-67
2020/12/22 10:52:48;;;;;;;;;;;;;;;;;;5040299;28;20409;-67
2020/12/22 10:55:15;;;;;;;;;;;;;;;;;;5034079;28;19925;-69
2020/12/22 10:57:41;;;;;;;;;;;;;;;;;;5048496;28;20407;-68
2020/12/22 11:00:08;;;;;;;;;;;;;;;;;;5049965;28;19950;-68
2020/12/22 11:02:34;;;;;;;;;;;;;;;;;;5050067;28;20241;-68
2020/12/22 11:05:01;;;;;;;;;;;;;;;;;;5052042;28;19928;-68
2020/12/22 11:07:31;;;;;;;;;;;;;;;;;;5049828;28;19925;-68
2020/12/22 11:09:57;;;;;;;;;;;;;;;;;;5050177;28;19933;-67
2020/12/22 11:12:24;;;;;;;;;;;;;;;;;;5049083;28;19925;-67
2020/12/22 11:14:51;;;;;;;;;;;;;;;;;;5050956;28;19929;-68
2020/12/22 11:17:17;;;;;;;;;;;;;;;;;;5044895;28;19929;-67
2020/12/22 11:19:44;;;;;;;;;;;;;;;;;;5037707;28;19925;-67
2020/12/22 11:22:11;;;;;;;;;;;;;;;;;;5049056;28;19970;-67
2020/12/22 11:24:37;;;;;;;;;;;;;;;;;;5044028;28;19943;-67
2020/12/22 11:27:04;;;;;;;;;;;;;;;;;;5042816;28;19931;-67
2020/12/22 11:29:30;;;;;;;;;;;;;;;;;;5053825;28;19932;-67
2020/12/22 11:31:57;;;;;;;;;;;;;;;;;;5043145;28;19925;-67
2020/12/22 11:34:23;;;;;;;;;;;;;;;;;;5050343;28;19929;-67
2020/12/22 11:36:49;;;;;;;;;;;;;;;;;;5050077;28;19928;-67
2020/12/22 11:39:16;;;;;;;;;;;;;;;;;;5053694;28;19932;-67
2020/12/22 11:41:42;;;;;;;;;;;;;;;;;;5052035;28;20369;-67
2020/12/22 11:44:09;;;;;;;;;;;;;;;;;;5050892;28;19924;-67
2020/12/22 11:46:35;;;;;;;;;;;;;;;;;;5055020;28;19975;-67
2020/12/22 11:49:02;;;;;;;;;;;;;;;;;;5045217;28;19925;-67
2020/12/22 11:51:28;;;;;;;;;;;;;;;;;;5049959;28;19925;-66
2020/12/22 11:53:55;;;;;;;;;;;;;;;;;;5054687;28;19935;-66
2020/12/22 11:56:21;;;;;;;;;;;;;;;;;;5046992;28;19928;-67
2020/12/22 11:58:48;;;;;;;;;;;;;;;;;;5042186;28;19929;-66
2020/12/22 12:01:14;;;;;;;;;;;;;;;;;;5045951;28;19924;-67
2020/12/22 12:03:41;;;;;;;;;;;;;;;;;;5045966;28;19928;-67
2020/12/22 12:06:07;;;;;;;;;;;;;;;;;;5054991;28;19925;-67
2020/12/22 12:08:34;;;;;;;;;;;;;;;;;;5050300;28;19932;-67
2020/12/22 12:11:00;;;;;;;;;;;;;;;;;;5041812;28;19925;-66
2020/12/22 12:13:26;;;;;;;;;;;;;;;;;;5054310;28;19931;-67
2020/12/22 12:15:53;;;;;;;;;;;;;;;;;;5042229;28;19929;-67
2020/12/22 12:18:19;;;;;;;;;;;;;;;;;;5045483;28;19947;-67
2020/12/22 12:20:46;;;;;;;;;;;;;;;;;;5041847;28;20050;-67
2020/12/22 12:23:12;;;;;;;;;;;;;;;;;;5044103;28;20325;-67
2020/12/22 12:25:39;;;;;;;;;;;;;;;;;;5048784;28;20398;-67
2020/12/22 12:28:05;;;;;;;;;;;;;;;;;;5047686;28;19925;-67
2020/12/22 12:30:32;;;;;;;;;;;;;;;;;;5047095;28;20383;-67
2020/12/22 12:32:58;;;;;;;;;;;;;;;;;;5050824;28;20004;-67
2020/12/22 12:35:26;;;;;;;;;;;;;;;;;;5045213;28;20508;-66
2020/12/22 12:37:53;;;;;;;;;;;;;;;;;;5052419;28;19929;-67
2020/12/22 12:40:19;;;;;;;;;;;;;;;;;;5051889;28;19924;-67
2020/12/22 12:42:46;;;;;;;;;;;;;;;;;;5049971;28;20382;-67
2020/12/22 12:45:13;;;;;;;;;;;;;;;;;;5044143;28;19929;-67
2020/12/22 12:47:40;;;;;;;;;;;;;;;;;;5049862;28;20053;-67
2020/12/22 12:50:06;;;;;;;;;;;;;;;;;;5034679;28;20011;-68
2020/12/22 12:52:33;;;;;;;;;;;;;;;;;;5034565;28;19972;-67
2020/12/22 12:55:00;;;;;;;;;;;;;;;;;;5051987;28;20371;-67
2020/12/22 12:57:26;;;;;;;;;;;;;;;;;;5043687;28;19925;-67
2020/12/22 12:59:53;;;;;;;;;;;;;;;;;;5040412;28;20287;-66
2020/12/22 13:02:19;;;;;;;;;;;;;;;;;;5059905;28;19924;-67
2020/12/22 13:04:46;;;;;;;;;;;;;;;;;;5049509;28;19925;-67
2020/12/22 13:07:12;;;;;;;;;;;;;;;;;;5042058;28;20435;-67
2020/12/22 13:09:38;;;;;;;;;;;;;;;;;;5053527;28;19939;-66
2020/12/22 13:12:05;;;;;;;;;;;;;;;;;;5049508;28;20003;-67
2020/12/22 13:14:31;;;;;;;;;;;;;;;;;;5044961;28;20016;-67
2020/12/22 13:16:58;;;;;;;;;;;;;;;;;;5047902;28;19925;-67
2020/12/22 13:19:25;;;;;;;;;;;;;;;;;;5052622;28;20018;-67
2020/12/22 13:21:51;;;;;;;;;;;;;;;;;;5041555;28;19925;-67
2020/12/22 13:24:18;;;;;;;;;;;;;;;;;;5041237;28;19925;-67
2020/12/22 13:26:44;;;;;;;;;;;;;;;;;;5036563;28;19978;-67
2020/12/22 13:29:12;;;;;;;;;;;;;;;;;;5050167;28;20374;-67
2020/12/22 13:31:38;;;;;;;;;;;;;;;;;;5052916;28;19972;-67
2020/12/22 13:34:05;;;;;;;;;;;;;;;;;;5048534;28;19991;-67
2020/12/22 13:36:31;;;;;;;;;;;;;;;;;;5051954;28;19951;-67
2020/12/22 13:38:58;;;;;;;;;;;;;;;;;;5052265;28;19925;-67
2020/12/22 13:41:24;;;;;;;;;;;;;;;;;;5052300;28;19925;-68
2020/12/22 13:43:51;;;;;;;;;;;;;;;;;;5050119;28;19925;-68
2020/12/22 13:46:17;;;;;;;;;;;;;;;;;;5052601;28;19972;-66
2020/12/22 13:48:44;;;;;;;;;;;;;;;;;;5048221;28;19983;-67
2020/12/22 13:51:10;;;;;;;;;;;;;;;;;;5033748;28;19925;-66
2020/12/22 13:53:37;;;;;;;;;;;;;;;;;;5040598;28;19979;-67
2020/12/22 13:56:03;;;;;;;;;;;;;;;;;;5049782;28;20286;-67
2020/12/22 13:58:30;;;;;;;;;;;;;;;;;;5034442;28;19925;-68
2020/12/22 14:00:56;;;;;;;;;;;;;;;;;;5041956;28;20387;-66
2020/12/22 14:03:23;;;;;;;;;;;;;;;;;;5048444;28;19936;-67
2020/12/22 14:05:49;;;;;;;;;;;;;;;;;;5045617;28;19943;-67
2020/12/22 14:08:16;;;;;;;;;;;;;;;;;;5042093;28;20023;-67
2020/12/22 14:10:42;;;;;;;;;;;;;;;;;;5039534;28;19940;-68
2020/12/22 14:13:09;;;;;;;;;;;;;;;;;;5048220;28;20016;-68
2020/12/22 14:15:35;;;;;;;;;;;;;;;;;;5036778;28;19970;-67
2020/12/22 14:18:02;;;;;;;;;;;;;;;;;;5047552;28;20154;-67
2020/12/22 14:20:28;;;;;;;;;;;;;;;;;;5047676;28;20012;-67
2020/12/22 14:22:55;;;;;;;;;;;;;;;;;;5041201;28;20817;-68
2020/12/22 14:25:21;;;;;;;;;;;;;;;;;;5032985;28;19925;-68
2020/12/22 14:27:48;;;;;;;;;;;;;;;;;;5038995;28;19940;-67
2020/12/22 14:30:14;;;;;;;;;;;;;;;;;;5050128;28;19932;-67
2020/12/22 14:32:41;;;;;;;;;;;;;;;;;;5044897;28;19931;-68
2020/12/22 14:35:07;;;;;;;;;;;;;;;;;;5052014;28;19931;-67
2020/12/22 14:37:34;;;;;;;;;;;;;;;;;;5039624;28;19967;-67
2020/12/22 14:40:00;;;;;;;;;;;;;;;;;;5039535;28;20016;-67
2020/12/22 14:42:27;;;;;;;;;;;;;;;;;;5033325;28;19979;-68
2020/12/22 14:44:53;;;;;;;;;;;;;;;;;;5033127;28;20426;-67
2020/12/22 14:47:20;;;;;;;;;;;;;;;;;;5034473;28;20016;-67
2020/12/22 14:49:46;;;;;;;;;;;;;;;;;;5038476;28;19937;-68
2020/12/22 14:52:13;;;;;;;;;;;;;;;;;;5031177;28;19940;-68
2020/12/22 14:54:39;;;;;;;;;;;;;;;;;;5046152;28;19925;-68
2020/12/22 14:57:06;;;;;;;;;;;;;;;;;;5049932;28;20019;-67
2020/12/22 14:59:32;;;;;;;;;;;;;;;;;;5037367;28;19932;-66
2020/12/22 15:01:59;;;;;;;;;;;;;;;;;;5038195;28;20379;-66
2020/12/22 15:04:26;;;;;;;;;;;;;;;;;;5045392;28;19940;-67
2020/12/22 15:06:52;;;;;;;;;;;;;;;;;;5049557;28;19986;-67
2020/12/22 15:09:19;;;;;;;;;;;;;;;;;;5046298;28;19932;-67
2020/12/22 15:11:45;;;;;;;;;;;;;;;;;;5048160;28;19940;-69
2020/12/22 15:14:12;;;;;;;;;;;;;;;;;;5044945;28;20220;-67
2020/12/22 15:16:38;;;;;;;;;;;;;;;;;;5044905;28;19929;-67
2020/12/22 15:19:05;;;;;;;;;;;;;;;;;;5048249;28;20071;-69
2020/12/22 15:21:31;;;;;;;;;;;;;;;;;;5050408;28;19978;-68
2020/12/22 15:23:58;;;;;;;;;;;;;;;;;;5050964;28;20360;-68
2020/12/22 15:26:24;;;;;;;;;;;;;;;;;;5050038;28;20031;-69
2020/12/22 15:28:51;;;;;;;;;;;;;;;;;;5047765;28;19928;-69
2020/12/22 15:31:17;;;;;;;;;;;;;;;;;;5050253;28;19939;-69
2020/12/22 15:33:44;;;;;;;;;;;;;;;;;;5045652;28;19982;-68
2020/12/22 15:36:10;;;;;;;;;;;;;;;;;;5049036;28;20000;-68
2020/12/22 15:38:37;;;;;;;;;;;;;;;;;;5042719;28;19931;-69
2020/12/22 15:41:03;;;;;;;;;;;;;;;;;;5049649;28;19932;-69
2020/12/22 15:43:30;;;;;;;;;;;;;;;;;;5049800;28;19960;-68
2020/12/22 15:45:56;;;;;;;;;;;;;;;;;;5049598;28;19929;-68
2020/12/22 15:48:23;;;;;;;;;;;;;;;;;;5049278;28;20429;-68
2020/12/22 15:50:50;;;;;;;;;;;;;;;;;;5050858;28;20003;-69
2020/12/22 15:53:16;;;;;;;;;;;;;;;;;;5049651;28;20394;-68
2020/12/22 15:55:43;;;;;;;;;;;;;;;;;;5050083;28;19983;-67
2020/12/22 15:58:09;;;;;;;;;;;;;;;;;;5049837;28;20395;-68
2020/12/22 16:00:36;;;;;;;;;;;;;;;;;;5043218;28;19978;-68
2020/12/22 16:03:03;;;;;;;;;;;;;;;;;;5050330;28;20379;-67
2020/12/22 16:05:29;;;;;;;;;;;;;;;;;;5050052;28;19949;-68
2020/12/22 16:07:58;;;;;;;;;;;;;;;;;;5049614;28;19925;-69
2020/12/22 16:10:24;;;;;;;;;;;;;;;;;;5053207;28;20417;-67
2020/12/22 16:12:51;;;;;;;;;;;;;;;;;;5052356;28;19931;-67
2020/12/22 16:15:17;;;;;;;;;;;;;;;;;;5053501;28;20240;-66
2020/12/22 16:17:44;;;;;;;;;;;;;;;;;;5053148;28;19925;-68
2020/12/22 16:20:10;;;;;;;;;;;;;;;;;;5052804;28;20081;-67
2020/12/22 16:22:37;;;;;;;;;;;;;;;;;;5053918;28;20027;-68
2020/12/22 16:25:04;;;;;;;;;;;;;;;;;;5052921;28;19932;-67
2020/12/22 16:27:30;;;;;;;;;;;;;;;;;;5053682;28;19928;-67
2020/12/22 16:29:57;;;;;;;;;;;;;;;;;;5053281;28;19924;-68
2020/12/22 16:32:23;;;;;;;;;;;;;;;;;;5053241;28;20400;-67
2020/12/22 16:34:50;;;;;;;;;;;;;;;;;;5053281;28;19924;-67
2020/12/22 16:37:16;;;;;;;;;;;;;;;;;;5052490;28;20047;-69
2020/12/22 16:39:43;;;;;;;;;;;;;;;;;;5054053;28;20050;-68